sensor_id;sensor_type;location;lat;lon;timestamp;P1;durP1;ratioP1;P2;durP2;ratioP2
4676;SDS011;2352;48.180;11.478;2023-10-13T00:01:04;4.28;;;2.75;;
4676;SDS011;2352;48.180;11.478;2023-10-13T00:04:09;4.18;;;3.00;;
4676;SDS011;2352;48.180;11.478;2023-10-13T00:07:12;4.97;;;2.90;;
4676;SDS011;2352;48.180;11.478;2023-10-13T00:10:15;3.60;;;3.28;;
4676;SDS011;2352;48.180;11.478;2023-10-13T00:13:20;3.57;;;3.13;;
4676;SDS011;2352;48.180;11.478;2023-10-13T00:16:24;3.67;;;2.97;;
4676;SDS011;2352;48.180;11.478;2023-10-13T00:19:28;4.55;;;2.85;;
4676;SDS011;2352;48.180;11.478;2023-10-13T00:22:39;5.05;;;2.85;;
4676;SDS011;2352;48.180;11.478;2023-10-13T00:25:42;3.40;;;2.67;;
4676;SDS011;2352;48.180;11.478;2023-10-13T00:28:51;4.47;;;2.95;;
4676;SDS011;2352;48.180;11.478;2023-10-13T00:32:03;4.95;;;2.97;;
4676;SDS011;2352;48.180;11.478;2023-10-13T00:35:07;3.63;;;2.60;;
4676;SDS011;2352;48.180;11.478;2023-10-13T00:38:12;3.92;;;2.95;;
4676;SDS011;2352;48.180;11.478;2023-10-13T00:41:15;3.42;;;3.13;;
4676;SDS011;2352;48.180;11.478;2023-10-13T00:44:19;4.15;;;3.30;;
4676;SDS011;2352;48.180;11.478;2023-10-13T00:47:40;3.35;;;2.95;;
4676;SDS011;2352;48.180;11.478;2023-10-13T00:50:50;4.50;;;3.00;;
4676;SDS011;2352;48.180;11.478;2023-10-13T00:53:58;3.20;;;2.90;;
4676;SDS011;2352;48.180;11.478;2023-10-13T00:57:03;4.27;;;3.23;;
4676;SDS011;2352;48.180;11.478;2023-10-13T01:00:13;3.10;;;2.42;;
4676;SDS011;2352;48.180;11.478;2023-10-13T01:03:26;5.03;;;2.83;;
4676;SDS011;2352;48.180;11.478;2023-10-13T01:06:29;4.63;;;3.22;;
4676;SDS011;2352;48.180;11.478;2023-10-13T01:09:39;4.25;;;3.50;;
4676;SDS011;2352;48.180;11.478;2023-10-13T01:12:43;5.45;;;3.53;;
4676;SDS011;2352;48.180;11.478;2023-10-13T01:15:47;3.37;;;3.03;;
4676;SDS011;2352;48.180;11.478;2023-10-13T01:18:52;3.20;;;2.90;;
4676;SDS011;2352;48.180;11.478;2023-10-13T01:22:00;3.55;;;3.00;;
4676;SDS011;2352;48.180;11.478;2023-10-13T01:25:07;6.15;;;2.80;;
4676;SDS011;2352;48.180;11.478;2023-10-13T01:28:14;3.85;;;2.95;;
4676;SDS011;2352;48.180;11.478;2023-10-13T01:31:18;3.78;;;3.22;;
4676;SDS011;2352;48.180;11.478;2023-10-13T01:34:29;4.93;;;2.90;;
4676;SDS011;2352;48.180;11.478;2023-10-13T01:37:34;5.07;;;3.10;;
4676;SDS011;2352;48.180;11.478;2023-10-13T01:40:38;5.18;;;2.80;;
4676;SDS011;2352;48.180;11.478;2023-10-13T01:43:41;4.10;;;3.70;;
4676;SDS011;2352;48.180;11.478;2023-10-13T01:46:46;3.50;;;2.33;;
4676;SDS011;2352;48.180;11.478;2023-10-13T01:49:49;4.73;;;3.40;;
4676;SDS011;2352;48.180;11.478;2023-10-13T01:52:52;5.30;;;3.47;;
4676;SDS011;2352;48.180;11.478;2023-10-13T01:56:02;3.83;;;3.17;;
4676;SDS011;2352;48.180;11.478;2023-10-13T01:59:11;5.13;;;3.40;;
4676;SDS011;2352;48.180;11.478;2023-10-13T02:02:14;3.58;;;3.28;;
4676;SDS011;2352;48.180;11.478;2023-10-13T02:05:21;3.67;;;3.38;;
4676;SDS011;2352;48.180;11.478;2023-10-13T02:08:28;3.83;;;3.10;;
4676;SDS011;2352;48.180;11.478;2023-10-13T02:11:33;4.25;;;3.13;;
4676;SDS011;2352;48.180;11.478;2023-10-13T02:14:35;3.97;;;3.00;;
4676;SDS011;2352;48.180;11.478;2023-10-13T02:17:39;4.05;;;3.17;;
4676;SDS011;2352;48.180;11.478;2023-10-13T02:20:46;2.97;;;2.67;;
4676;SDS011;2352;48.180;11.478;2023-10-13T02:23:55;3.67;;;3.30;;
4676;SDS011;2352;48.180;11.478;2023-10-13T02:27:02;4.75;;;2.90;;
4676;SDS011;2352;48.180;11.478;2023-10-13T02:30:11;4.53;;;3.92;;
4676;SDS011;2352;48.180;11.478;2023-10-13T02:33:16;2.95;;;2.70;;
4676;SDS011;2352;48.180;11.478;2023-10-13T02:36:23;4.63;;;3.73;;
4676;SDS011;2352;48.180;11.478;2023-10-13T02:39:37;4.88;;;3.00;;
4676;SDS011;2352;48.180;11.478;2023-10-13T02:42:43;4.73;;;3.60;;
4676;SDS011;2352;48.180;11.478;2023-10-13T02:45:51;4.15;;;3.65;;
4676;SDS011;2352;48.180;11.478;2023-10-13T02:48:58;4.68;;;3.08;;
4676;SDS011;2352;48.180;11.478;2023-10-13T02:52:10;3.33;;;2.90;;
4676;SDS011;2352;48.180;11.478;2023-10-13T02:55:14;3.25;;;2.90;;
4676;SDS011;2352;48.180;11.478;2023-10-13T02:58:28;3.50;;;2.70;;
4676;SDS011;2352;48.180;11.478;2023-10-13T03:01:39;2.77;;;2.57;;
4676;SDS011;2352;48.180;11.478;2023-10-13T03:04:43;3.63;;;2.93;;
4676;SDS011;2352;48.180;11.478;2023-10-13T03:07:46;4.13;;;2.83;;
4676;SDS011;2352;48.180;11.478;2023-10-13T03:10:51;3.13;;;2.80;;
4676;SDS011;2352;48.180;11.478;2023-10-13T03:13:57;4.25;;;3.28;;
4676;SDS011;2352;48.180;11.478;2023-10-13T03:17:00;3.15;;;2.85;;
4676;SDS011;2352;48.180;11.478;2023-10-13T03:20:07;5.20;;;3.50;;
4676;SDS011;2352;48.180;11.478;2023-10-13T03:23:13;2.83;;;2.55;;
4676;SDS011;2352;48.180;11.478;2023-10-13T03:26:16;2.92;;;2.72;;
4676;SDS011;2352;48.180;11.478;2023-10-13T03:29:22;3.97;;;2.67;;
4676;SDS011;2352;48.180;11.478;2023-10-13T03:32:25;4.07;;;3.20;;
4676;SDS011;2352;48.180;11.478;2023-10-13T03:35:32;3.35;;;3.05;;
4676;SDS011;2352;48.180;11.478;2023-10-13T03:38:40;4.03;;;3.63;;
4676;SDS011;2352;48.180;11.478;2023-10-13T03:41:45;5.88;;;3.92;;
4676;SDS011;2352;48.180;11.478;2023-10-13T03:44:58;3.65;;;3.35;;
4676;SDS011;2352;48.180;11.478;2023-10-13T03:48:03;3.75;;;3.25;;
4676;SDS011;2352;48.180;11.478;2023-10-13T03:51:10;6.15;;;3.75;;
4676;SDS011;2352;48.180;11.478;2023-10-13T03:54:16;4.47;;;3.83;;
4676;SDS011;2352;48.180;11.478;2023-10-13T03:57:19;5.20;;;3.65;;
4676;SDS011;2352;48.180;11.478;2023-10-13T04:00:24;6.60;;;3.65;;
4676;SDS011;2352;48.180;11.478;2023-10-13T04:03:28;7.93;;;2.92;;
4676;SDS011;2352;48.180;11.478;2023-10-13T04:06:52;6.38;;;3.33;;
4676;SDS011;2352;48.180;11.478;2023-10-13T04:10:03;3.53;;;3.22;;
4676;SDS011;2352;48.180;11.478;2023-10-13T04:13:35;5.10;;;3.28;;
4676;SDS011;2352;48.180;11.478;2023-10-13T04:16:57;3.92;;;3.40;;
4676;SDS011;2352;48.180;11.478;2023-10-13T04:20:01;3.80;;;3.50;;
4676;SDS011;2352;48.180;11.478;2023-10-13T04:23:28;3.38;;;3.05;;
4676;SDS011;2352;48.180;11.478;2023-10-13T04:26:52;3.45;;;2.92;;
4676;SDS011;2352;48.180;11.478;2023-10-13T04:30:12;3.45;;;2.88;;
4676;SDS011;2352;48.180;11.478;2023-10-13T04:33:27;4.57;;;3.35;;
4676;SDS011;2352;48.180;11.478;2023-10-13T04:36:37;4.50;;;3.63;;
4676;SDS011;2352;48.180;11.478;2023-10-13T04:39:46;5.28;;;3.95;;
4676;SDS011;2352;48.180;11.478;2023-10-13T04:42:57;5.05;;;4.05;;
4676;SDS011;2352;48.180;11.478;2023-10-13T04:46:05;4.90;;;3.07;;
4676;SDS011;2352;48.180;11.478;2023-10-13T04:49:28;4.90;;;3.78;;
4676;SDS011;2352;48.180;11.478;2023-10-13T04:52:37;5.15;;;3.90;;
4676;SDS011;2352;48.180;11.478;2023-10-13T04:56:02;7.53;;;3.97;;
4676;SDS011;2352;48.180;11.478;2023-10-13T04:59:19;6.38;;;3.55;;
4676;SDS011;2352;48.180;11.478;2023-10-13T05:02:36;5.03;;;3.50;;
4676;SDS011;2352;48.180;11.478;2023-10-13T05:06:18;4.55;;;3.33;;
4676;SDS011;2352;48.180;11.478;2023-10-13T05:09:38;3.78;;;3.40;;
4676;SDS011;2352;48.180;11.478;2023-10-13T05:12:58;4.27;;;3.30;;
4676;SDS011;2352;48.180;11.478;2023-10-13T05:16:19;7.40;;;3.72;;
4676;SDS011;2352;48.180;11.478;2023-10-13T05:19:39;5.40;;;4.07;;
4676;SDS011;2352;48.180;11.478;2023-10-13T05:23:01;5.20;;;3.40;;
4676;SDS011;2352;48.180;11.478;2023-10-13T05:26:28;5.28;;;3.42;;
4676;SDS011;2352;48.180;11.478;2023-10-13T05:29:48;5.00;;;3.70;;
4676;SDS011;2352;48.180;11.478;2023-10-13T05:33:08;5.73;;;3.83;;
4676;SDS011;2352;48.180;11.478;2023-10-13T05:36:29;5.50;;;3.40;;
4676;SDS011;2352;48.180;11.478;2023-10-13T05:39:51;5.57;;;3.63;;
4676;SDS011;2352;48.180;11.478;2023-10-13T05:43:11;7.20;;;3.55;;
4676;SDS011;2352;48.180;11.478;2023-10-13T05:46:31;3.93;;;3.47;;
4676;SDS011;2352;48.180;11.478;2023-10-13T05:49:50;8.97;;;3.77;;
4676;SDS011;2352;48.180;11.478;2023-10-13T05:53:04;6.27;;;3.20;;
4676;SDS011;2352;48.180;11.478;2023-10-13T05:56:26;4.03;;;3.30;;
4676;SDS011;2352;48.180;11.478;2023-10-13T06:00:01;4.82;;;3.38;;
4676;SDS011;2352;48.180;11.478;2023-10-13T06:03:22;7.07;;;3.63;;
4676;SDS011;2352;48.180;11.478;2023-10-13T06:06:52;6.75;;;3.90;;
4676;SDS011;2352;48.180;11.478;2023-10-13T06:10:12;7.13;;;3.55;;
4676;SDS011;2352;48.180;11.478;2023-10-13T06:13:34;5.07;;;3.72;;
4676;SDS011;2352;48.180;11.478;2023-10-13T06:16:55;9.13;;;3.97;;
4676;SDS011;2352;48.180;11.478;2023-10-13T06:20:15;7.20;;;4.20;;
4676;SDS011;2352;48.180;11.478;2023-10-13T06:23:35;4.93;;;2.80;;
4676;SDS011;2352;48.180;11.478;2023-10-13T06:26:56;5.65;;;4.03;;
4676;SDS011;2352;48.180;11.478;2023-10-13T06:30:17;7.18;;;3.22;;
4676;SDS011;2352;48.180;11.478;2023-10-13T06:33:20;7.65;;;4.22;;
4676;SDS011;2352;48.180;11.478;2023-10-13T06:36:30;4.45;;;3.50;;
4676;SDS011;2352;48.180;11.478;2023-10-13T06:39:34;8.63;;;4.35;;
4676;SDS011;2352;48.180;11.478;2023-10-13T06:42:37;5.32;;;3.03;;
4676;SDS011;2352;48.180;11.478;2023-10-13T06:45:45;6.85;;;3.72;;
4676;SDS011;2352;48.180;11.478;2023-10-13T06:48:52;5.00;;;3.70;;
4676;SDS011;2352;48.180;11.478;2023-10-13T06:51:55;5.18;;;3.72;;
4676;SDS011;2352;48.180;11.478;2023-10-13T06:55:01;5.95;;;3.80;;
4676;SDS011;2352;48.180;11.478;2023-10-13T06:58:06;5.00;;;3.95;;
4676;SDS011;2352;48.180;11.478;2023-10-13T07:01:16;5.10;;;3.57;;
4676;SDS011;2352;48.180;11.478;2023-10-13T07:04:23;5.07;;;3.30;;
4676;SDS011;2352;48.180;11.478;2023-10-13T07:07:28;6.07;;;3.63;;
4676;SDS011;2352;48.180;11.478;2023-10-13T07:10:31;6.90;;;3.72;;
4676;SDS011;2352;48.180;11.478;2023-10-13T07:13:46;5.03;;;3.67;;
4676;SDS011;2352;48.180;11.478;2023-10-13T07:16:57;5.38;;;3.95;;
4676;SDS011;2352;48.180;11.478;2023-10-13T07:20:02;5.73;;;3.50;;
4676;SDS011;2352;48.180;11.478;2023-10-13T07:23:16;7.07;;;3.97;;
4676;SDS011;2352;48.180;11.478;2023-10-13T07:26:22;4.90;;;3.83;;
4676;SDS011;2352;48.180;11.478;2023-10-13T07:29:25;3.90;;;3.15;;
4676;SDS011;2352;48.180;11.478;2023-10-13T07:32:29;9.07;;;3.47;;
4676;SDS011;2352;48.180;11.478;2023-10-13T07:35:35;5.10;;;3.33;;
4676;SDS011;2352;48.180;11.478;2023-10-13T07:38:38;5.88;;;3.47;;
4676;SDS011;2352;48.180;11.478;2023-10-13T07:41:43;7.55;;;4.25;;
4676;SDS011;2352;48.180;11.478;2023-10-13T07:44:52;6.53;;;3.73;;
4676;SDS011;2352;48.180;11.478;2023-10-13T07:47:58;5.68;;;3.55;;
4676;SDS011;2352;48.180;11.478;2023-10-13T07:51:02;6.03;;;3.47;;
4676;SDS011;2352;48.180;11.478;2023-10-13T07:54:06;6.90;;;3.42;;
4676;SDS011;2352;48.180;11.478;2023-10-13T07:57:13;7.35;;;3.22;;
4676;SDS011;2352;48.180;11.478;2023-10-13T08:00:17;6.87;;;3.73;;
4676;SDS011;2352;48.180;11.478;2023-10-13T08:03:32;7.13;;;3.72;;
4676;SDS011;2352;48.180;11.478;2023-10-13T08:06:45;7.65;;;3.92;;
4676;SDS011;2352;48.180;11.478;2023-10-13T08:09:50;8.68;;;4.47;;
4676;SDS011;2352;48.180;11.478;2023-10-13T08:12:53;6.00;;;3.53;;
4676;SDS011;2352;48.180;11.478;2023-10-13T08:16:00;5.50;;;3.47;;
4676;SDS011;2352;48.180;11.478;2023-10-13T08:19:10;5.38;;;3.70;;
4676;SDS011;2352;48.180;11.478;2023-10-13T08:22:14;4.57;;;3.33;;
4676;SDS011;2352;48.180;11.478;2023-10-13T08:25:28;10.33;;;4.30;;
4676;SDS011;2352;48.180;11.478;2023-10-13T08:28:55;5.13;;;3.45;;
4676;SDS011;2352;48.180;11.478;2023-10-13T08:31:58;9.52;;;3.70;;
4676;SDS011;2352;48.180;11.478;2023-10-13T08:35:17;5.68;;;3.42;;
4676;SDS011;2352;48.180;11.478;2023-10-13T08:38:35;11.52;;;3.50;;
4676;SDS011;2352;48.180;11.478;2023-10-13T08:41:52;7.10;;;3.45;;
4676;SDS011;2352;48.180;11.478;2023-10-13T08:45:11;5.32;;;3.08;;
4676;SDS011;2352;48.180;11.478;2023-10-13T08:48:43;4.60;;;3.33;;
4676;SDS011;2352;48.180;11.478;2023-10-13T08:51:50;7.75;;;3.17;;
4676;SDS011;2352;48.180;11.478;2023-10-13T08:55:06;9.20;;;3.28;;
4676;SDS011;2352;48.180;11.478;2023-10-13T08:58:30;4.90;;;3.03;;
4676;SDS011;2352;48.180;11.478;2023-10-13T09:01:52;5.28;;;3.13;;
4676;SDS011;2352;48.180;11.478;2023-10-13T09:05:17;4.45;;;3.17;;
4676;SDS011;2352;48.180;11.478;2023-10-13T09:08:35;3.50;;;2.47;;
4676;SDS011;2352;48.180;11.478;2023-10-13T09:11:46;6.82;;;3.20;;
4676;SDS011;2352;48.180;11.478;2023-10-13T09:14:55;5.90;;;2.90;;
4676;SDS011;2352;48.180;11.478;2023-10-13T09:17:59;7.22;;;2.83;;
4676;SDS011;2352;48.180;11.478;2023-10-13T09:21:14;5.22;;;2.58;;
4676;SDS011;2352;48.180;11.478;2023-10-13T09:24:50;5.72;;;3.15;;
4676;SDS011;2352;48.180;11.478;2023-10-13T09:27:52;7.03;;;3.35;;
4676;SDS011;2352;48.180;11.478;2023-10-13T09:30:55;7.10;;;3.23;;
4676;SDS011;2352;48.180;11.478;2023-10-13T09:33:58;5.07;;;3.00;;
4676;SDS011;2352;48.180;11.478;2023-10-13T09:37:03;6.30;;;3.10;;
4676;SDS011;2352;48.180;11.478;2023-10-13T09:40:12;6.00;;;2.67;;
4676;SDS011;2352;48.180;11.478;2023-10-13T09:43:31;5.57;;;3.30;;
4676;SDS011;2352;48.180;11.478;2023-10-13T09:46:36;4.32;;;2.28;;
4676;SDS011;2352;48.180;11.478;2023-10-13T09:49:43;4.90;;;2.90;;
4676;SDS011;2352;48.180;11.478;2023-10-13T09:52:50;4.53;;;2.60;;
4676;SDS011;2352;48.180;11.478;2023-10-13T09:55:58;3.88;;;2.83;;
4676;SDS011;2352;48.180;11.478;2023-10-13T09:59:14;6.95;;;2.95;;
4676;SDS011;2352;48.180;11.478;2023-10-13T10:02:20;6.38;;;2.92;;
4676;SDS011;2352;48.180;11.478;2023-10-13T10:05:28;5.05;;;2.58;;
4676;SDS011;2352;48.180;11.478;2023-10-13T10:08:35;5.90;;;3.33;;
4676;SDS011;2352;48.180;11.478;2023-10-13T10:15:16;4.35;;;2.25;;
4676;SDS011;2352;48.180;11.478;2023-10-13T10:18:32;4.72;;;2.70;;
4676;SDS011;2352;48.180;11.478;2023-10-13T10:21:35;5.43;;;2.80;;
4676;SDS011;2352;48.180;11.478;2023-10-13T10:24:38;4.80;;;2.23;;
4676;SDS011;2352;48.180;11.478;2023-10-13T10:27:42;5.95;;;2.58;;
4676;SDS011;2352;48.180;11.478;2023-10-13T10:30:45;5.70;;;2.75;;
4676;SDS011;2352;48.180;11.478;2023-10-13T10:33:48;2.72;;;2.08;;
4676;SDS011;2352;48.180;11.478;2023-10-13T10:36:53;7.10;;;3.20;;
4676;SDS011;2352;48.180;11.478;2023-10-13T10:39:58;4.43;;;2.15;;
4676;SDS011;2352;48.180;11.478;2023-10-13T10:43:03;8.63;;;3.17;;
4676;SDS011;2352;48.180;11.478;2023-10-13T10:46:29;2.95;;;2.10;;
4676;SDS011;2352;48.180;11.478;2023-10-13T10:49:41;4.05;;;2.67;;
4676;SDS011;2352;48.180;11.478;2023-10-13T10:52:45;4.23;;;2.33;;
4676;SDS011;2352;48.180;11.478;2023-10-13T10:55:48;6.07;;;2.70;;
4676;SDS011;2352;48.180;11.478;2023-10-13T10:58:54;5.75;;;2.40;;
4676;SDS011;2352;48.180;11.478;2023-10-13T11:01:59;3.90;;;2.83;;
4676;SDS011;2352;48.180;11.478;2023-10-13T11:05:02;5.60;;;2.55;;
4676;SDS011;2352;48.180;11.478;2023-10-13T11:08:07;3.75;;;1.95;;
4676;SDS011;2352;48.180;11.478;2023-10-13T11:11:28;7.13;;;2.60;;
4676;SDS011;2352;48.180;11.478;2023-10-13T11:14:37;5.20;;;2.53;;
4676;SDS011;2352;48.180;11.478;2023-10-13T11:17:40;7.57;;;2.97;;
4676;SDS011;2352;48.180;11.478;2023-10-13T11:20:55;2.45;;;2.10;;
4676;SDS011;2352;48.180;11.478;2023-10-13T11:23:58;3.45;;;2.50;;
4676;SDS011;2352;48.180;11.478;2023-10-13T11:27:16;8.05;;;2.97;;
4676;SDS011;2352;48.180;11.478;2023-10-13T11:30:23;3.95;;;2.60;;
4676;SDS011;2352;48.180;11.478;2023-10-13T11:33:31;6.55;;;2.70;;
4676;SDS011;2352;48.180;11.478;2023-10-13T11:36:34;5.70;;;2.67;;
4676;SDS011;2352;48.180;11.478;2023-10-13T11:39:37;3.47;;;2.35;;
4676;SDS011;2352;48.180;11.478;2023-10-13T11:42:43;6.22;;;2.50;;
4676;SDS011;2352;48.180;11.478;2023-10-13T11:45:50;7.60;;;2.53;;
4676;SDS011;2352;48.180;11.478;2023-10-13T11:48:56;5.68;;;2.30;;
4676;SDS011;2352;48.180;11.478;2023-10-13T11:52:06;3.65;;;2.42;;
4676;SDS011;2352;48.180;11.478;2023-10-13T11:55:26;5.13;;;2.25;;
4676;SDS011;2352;48.180;11.478;2023-10-13T11:58:29;3.60;;;1.80;;
4676;SDS011;2352;48.180;11.478;2023-10-13T12:01:33;5.53;;;2.50;;
4676;SDS011;2352;48.180;11.478;2023-10-13T12:04:50;5.07;;;2.40;;
4676;SDS011;2352;48.180;11.478;2023-10-13T12:07:56;3.92;;;2.50;;
4676;SDS011;2352;48.180;11.478;2023-10-13T12:11:05;4.80;;;2.78;;
4676;SDS011;2352;48.180;11.478;2023-10-13T12:14:22;5.18;;;2.88;;
4676;SDS011;2352;48.180;11.478;2023-10-13T12:17:32;4.25;;;2.20;;
4676;SDS011;2352;48.180;11.478;2023-10-13T12:20:36;3.07;;;2.03;;
4676;SDS011;2352;48.180;11.478;2023-10-13T12:23:46;4.50;;;2.60;;
4676;SDS011;2352;48.180;11.478;2023-10-13T12:26:51;3.60;;;2.53;;
4676;SDS011;2352;48.180;11.478;2023-10-13T12:29:57;4.20;;;2.45;;
4676;SDS011;2352;48.180;11.478;2023-10-13T12:33:09;3.70;;;2.40;;
4676;SDS011;2352;48.180;11.478;2023-10-13T12:36:12;4.25;;;2.28;;
4676;SDS011;2352;48.180;11.478;2023-10-13T12:39:31;3.60;;;2.30;;
4676;SDS011;2352;48.180;11.478;2023-10-13T12:42:52;4.50;;;2.80;;
4676;SDS011;2352;48.180;11.478;2023-10-13T12:46:12;7.18;;;2.53;;
4676;SDS011;2352;48.180;11.478;2023-10-13T12:49:30;5.63;;;2.47;;
4676;SDS011;2352;48.180;11.478;2023-10-13T12:52:52;3.90;;;2.40;;
4676;SDS011;2352;48.180;11.478;2023-10-13T12:55:55;5.03;;;2.95;;
4676;SDS011;2352;48.180;11.478;2023-10-13T12:58:58;5.90;;;2.63;;
4676;SDS011;2352;48.180;11.478;2023-10-13T13:02:01;4.10;;;2.17;;
4676;SDS011;2352;48.180;11.478;2023-10-13T13:05:09;5.90;;;2.60;;
4676;SDS011;2352;48.180;11.478;2023-10-13T13:08:14;6.77;;;3.10;;
4676;SDS011;2352;48.180;11.478;2023-10-13T13:11:24;8.13;;;2.72;;
4676;SDS011;2352;48.180;11.478;2023-10-13T13:14:27;2.97;;;2.28;;
4676;SDS011;2352;48.180;11.478;2023-10-13T13:17:31;4.55;;;2.60;;
4676;SDS011;2352;48.180;11.478;2023-10-13T13:20:35;5.00;;;2.55;;
4676;SDS011;2352;48.180;11.478;2023-10-13T13:23:40;3.70;;;2.00;;
4676;SDS011;2352;48.180;11.478;2023-10-13T13:26:43;3.88;;;2.33;;
4676;SDS011;2352;48.180;11.478;2023-10-13T13:29:49;5.18;;;2.75;;
4676;SDS011;2352;48.180;11.478;2023-10-13T13:32:53;4.13;;;2.20;;
4676;SDS011;2352;48.180;11.478;2023-10-13T13:35:57;5.25;;;2.35;;
4676;SDS011;2352;48.180;11.478;2023-10-13T13:39:01;4.03;;;2.27;;
4676;SDS011;2352;48.180;11.478;2023-10-13T13:42:04;5.75;;;1.98;;
4676;SDS011;2352;48.180;11.478;2023-10-13T13:45:12;3.10;;;2.47;;
4676;SDS011;2352;48.180;11.478;2023-10-13T13:48:23;3.47;;;2.35;;
4676;SDS011;2352;48.180;11.478;2023-10-13T13:51:30;3.15;;;1.90;;
4676;SDS011;2352;48.180;11.478;2023-10-13T13:54:34;3.53;;;2.30;;
4676;SDS011;2352;48.180;11.478;2023-10-13T13:57:41;5.75;;;2.50;;
4676;SDS011;2352;48.180;11.478;2023-10-13T14:00:44;6.22;;;2.72;;
4676;SDS011;2352;48.180;11.478;2023-10-13T14:03:49;6.28;;;2.88;;
4676;SDS011;2352;48.180;11.478;2023-10-13T14:06:54;4.07;;;2.70;;
4676;SDS011;2352;48.180;11.478;2023-10-13T14:09:57;4.53;;;2.72;;
4676;SDS011;2352;48.180;11.478;2023-10-13T14:13:08;3.35;;;2.45;;
4676;SDS011;2352;48.180;11.478;2023-10-13T14:16:15;3.77;;;2.37;;
4676;SDS011;2352;48.180;11.478;2023-10-13T14:19:21;7.90;;;2.60;;
4676;SDS011;2352;48.180;11.478;2023-10-13T14:22:30;5.07;;;2.40;;
4676;SDS011;2352;48.180;11.478;2023-10-13T14:25:38;4.82;;;2.33;;
4676;SDS011;2352;48.180;11.478;2023-10-13T14:28:46;4.78;;;2.70;;
4676;SDS011;2352;48.180;11.478;2023-10-13T14:32:02;3.83;;;2.57;;
4676;SDS011;2352;48.180;11.478;2023-10-13T14:35:06;5.97;;;2.57;;
4676;SDS011;2352;48.180;11.478;2023-10-13T14:38:17;5.07;;;2.60;;
4676;SDS011;2352;48.180;11.478;2023-10-13T14:41:20;5.35;;;2.47;;
4676;SDS011;2352;48.180;11.478;2023-10-13T14:44:23;4.90;;;2.40;;
4676;SDS011;2352;48.180;11.478;2023-10-13T14:47:28;2.85;;;2.20;;
4676;SDS011;2352;48.180;11.478;2023-10-13T14:50:31;3.30;;;2.07;;
4676;SDS011;2352;48.180;11.478;2023-10-13T14:53:36;4.90;;;2.50;;
4676;SDS011;2352;48.180;11.478;2023-10-13T14:56:43;6.15;;;3.17;;
4676;SDS011;2352;48.180;11.478;2023-10-13T14:59:46;3.60;;;2.72;;
4676;SDS011;2352;48.180;11.478;2023-10-13T15:02:49;5.82;;;2.80;;
4676;SDS011;2352;48.180;11.478;2023-10-13T15:05:53;3.70;;;2.47;;
4676;SDS011;2352;48.180;11.478;2023-10-13T15:08:58;4.60;;;2.70;;
4676;SDS011;2352;48.180;11.478;2023-10-13T15:12:02;5.40;;;2.65;;
4676;SDS011;2352;48.180;11.478;2023-10-13T15:15:07;5.30;;;2.85;;
4676;SDS011;2352;48.180;11.478;2023-10-13T15:18:14;5.33;;;3.30;;
4676;SDS011;2352;48.180;11.478;2023-10-13T15:21:18;6.40;;;2.88;;
4676;SDS011;2352;48.180;11.478;2023-10-13T15:24:24;4.97;;;2.63;;
4676;SDS011;2352;48.180;11.478;2023-10-13T15:27:32;7.83;;;3.13;;
4676;SDS011;2352;48.180;11.478;2023-10-13T15:30:42;4.30;;;2.97;;
4676;SDS011;2352;48.180;11.478;2023-10-13T15:33:51;4.78;;;3.00;;
4676;SDS011;2352;48.180;11.478;2023-10-13T15:36:56;6.45;;;2.60;;
4676;SDS011;2352;48.180;11.478;2023-10-13T15:40:01;5.10;;;2.95;;
4676;SDS011;2352;48.180;11.478;2023-10-13T15:43:06;7.38;;;3.58;;
4676;SDS011;2352;48.180;11.478;2023-10-13T15:46:11;5.53;;;3.15;;
4676;SDS011;2352;48.180;11.478;2023-10-13T15:49:38;5.22;;;3.50;;
4676;SDS011;2352;48.180;11.478;2023-10-13T15:52:43;5.78;;;3.55;;
4676;SDS011;2352;48.180;11.478;2023-10-13T15:55:49;6.47;;;3.35;;
4676;SDS011;2352;48.180;11.478;2023-10-13T15:58:52;8.20;;;3.30;;
4676;SDS011;2352;48.180;11.478;2023-10-13T16:01:57;7.80;;;3.40;;
4676;SDS011;2352;48.180;11.478;2023-10-13T16:05:00;5.47;;;2.80;;
4676;SDS011;2352;48.180;11.478;2023-10-13T16:08:08;10.25;;;3.78;;
4676;SDS011;2352;48.180;11.478;2023-10-13T16:11:14;8.43;;;3.80;;
4676;SDS011;2352;48.180;11.478;2023-10-13T16:14:19;7.93;;;4.05;;
4676;SDS011;2352;48.180;11.478;2023-10-13T16:17:23;6.07;;;4.10;;
4676;SDS011;2352;48.180;11.478;2023-10-13T16:20:27;8.38;;;4.30;;
4676;SDS011;2352;48.180;11.478;2023-10-13T16:23:31;10.60;;;4.63;;
4676;SDS011;2352;48.180;11.478;2023-10-13T16:26:35;9.88;;;4.35;;
4676;SDS011;2352;48.180;11.478;2023-10-13T16:29:38;7.57;;;5.03;;
4676;SDS011;2352;48.180;11.478;2023-10-13T16:32:44;6.03;;;5.20;;
4676;SDS011;2352;48.180;11.478;2023-10-13T16:35:48;8.65;;;4.95;;
4676;SDS011;2352;48.180;11.478;2023-10-13T16:38:54;10.43;;;6.95;;
4676;SDS011;2352;48.180;11.478;2023-10-13T16:42:00;8.60;;;6.67;;
4676;SDS011;2352;48.180;11.478;2023-10-13T16:45:09;8.02;;;6.82;;
4676;SDS011;2352;48.180;11.478;2023-10-13T16:48:16;8.77;;;7.57;;
4676;SDS011;2352;48.180;11.478;2023-10-13T16:51:20;8.82;;;6.78;;
4676;SDS011;2352;48.180;11.478;2023-10-13T16:54:23;7.25;;;6.10;;
4676;SDS011;2352;48.180;11.478;2023-10-13T16:57:27;7.15;;;6.03;;
4676;SDS011;2352;48.180;11.478;2023-10-13T17:00:30;7.63;;;5.95;;
4676;SDS011;2352;48.180;11.478;2023-10-13T17:03:36;6.82;;;4.68;;
4676;SDS011;2352;48.180;11.478;2023-10-13T17:06:39;7.23;;;4.80;;
4676;SDS011;2352;48.180;11.478;2023-10-13T17:09:42;6.85;;;5.35;;
4676;SDS011;2352;48.180;11.478;2023-10-13T17:12:48;8.68;;;6.00;;
4676;SDS011;2352;48.180;11.478;2023-10-13T17:15:51;7.37;;;6.33;;
4676;SDS011;2352;48.180;11.478;2023-10-13T17:18:54;10.13;;;7.30;;
4676;SDS011;2352;48.180;11.478;2023-10-13T17:22:00;6.93;;;6.22;;
4676;SDS011;2352;48.180;11.478;2023-10-13T17:25:05;8.18;;;7.03;;
4676;SDS011;2352;48.180;11.478;2023-10-13T17:28:10;10.93;;;8.60;;
4676;SDS011;2352;48.180;11.478;2023-10-13T17:31:15;12.30;;;10.57;;
4676;SDS011;2352;48.180;11.478;2023-10-13T17:34:18;29.98;;;26.88;;
4676;SDS011;2352;48.180;11.478;2023-10-13T17:37:21;35.83;;;31.58;;
4676;SDS011;2352;48.180;11.478;2023-10-13T17:40:24;39.97;;;32.38;;
4676;SDS011;2352;48.180;11.478;2023-10-13T17:43:30;33.83;;;30.45;;
4676;SDS011;2352;48.180;11.478;2023-10-13T17:46:36;31.75;;;28.85;;
4676;SDS011;2352;48.180;11.478;2023-10-13T17:49:41;35.65;;;31.95;;
4676;SDS011;2352;48.180;11.478;2023-10-13T17:52:44;37.47;;;33.63;;
4676;SDS011;2352;48.180;11.478;2023-10-13T17:55:49;37.35;;;33.45;;
4676;SDS011;2352;48.180;11.478;2023-10-13T17:58:55;36.67;;;33.05;;
4676;SDS011;2352;48.180;11.478;2023-10-13T18:02:00;33.75;;;30.13;;
4676;SDS011;2352;48.180;11.478;2023-10-13T18:05:04;30.27;;;27.25;;
4676;SDS011;2352;48.180;11.478;2023-10-13T18:08:11;29.92;;;27.17;;
4676;SDS011;2352;48.180;11.478;2023-10-13T18:11:14;27.05;;;24.55;;
4676;SDS011;2352;48.180;11.478;2023-10-13T18:14:19;24.38;;;21.25;;
4676;SDS011;2352;48.180;11.478;2023-10-13T18:17:22;21.13;;;19.20;;
4676;SDS011;2352;48.180;11.478;2023-10-13T18:20:25;21.50;;;19.27;;
4676;SDS011;2352;48.180;11.478;2023-10-13T18:23:29;18.83;;;15.43;;
4676;SDS011;2352;48.180;11.478;2023-10-13T18:26:32;18.67;;;12.95;;
4676;SDS011;2352;48.180;11.478;2023-10-13T18:29:36;13.98;;;11.48;;
4676;SDS011;2352;48.180;11.478;2023-10-13T18:32:39;12.15;;;10.95;;
4676;SDS011;2352;48.180;11.478;2023-10-13T18:35:43;11.85;;;10.23;;
4676;SDS011;2352;48.180;11.478;2023-10-13T18:38:47;10.00;;;9.00;;
4676;SDS011;2352;48.180;11.478;2023-10-13T18:41:51;8.90;;;8.00;;
4676;SDS011;2352;48.180;11.478;2023-10-13T18:44:56;9.95;;;8.18;;
4676;SDS011;2352;48.180;11.478;2023-10-13T18:47:59;11.38;;;7.60;;
4676;SDS011;2352;48.180;11.478;2023-10-13T18:51:04;10.82;;;7.50;;
4676;SDS011;2352;48.180;11.478;2023-10-13T18:54:08;9.10;;;7.05;;
4676;SDS011;2352;48.180;11.478;2023-10-13T18:57:11;11.70;;;7.60;;
4676;SDS011;2352;48.180;11.478;2023-10-13T19:00:17;7.93;;;7.22;;
4676;SDS011;2352;48.180;11.478;2023-10-13T19:03:24;12.10;;;7.63;;
4676;SDS011;2352;48.180;11.478;2023-10-13T19:06:29;11.98;;;7.13;;
4676;SDS011;2352;48.180;11.478;2023-10-13T19:09:33;7.10;;;6.23;;
4676;SDS011;2352;48.180;11.478;2023-10-13T19:12:38;9.03;;;6.57;;
4676;SDS011;2352;48.180;11.478;2023-10-13T19:15:43;8.70;;;6.55;;